Time;durP1;ratioP1;P1;durP2;ratioP2;P2;SDS_P1;SDS_P2;PMS_P1;PMS_P2;Temp;Humidity;BMP_temperature;BMP_pressure;BME280_temperature;BME280_humidity;BME280_pressure;Samples;Min_cycle;Max_cycle;Signal;HPM_P1;HPM_P2
2022/02/13 00:01:43;;;;;;;28.60;19.88;;;26.70;97.20;;;;;;4185639;28;20045;-67
2022/02/13 00:04:08;;;;;;;29.30;19.58;;;26.70;97.10;;;;;;4184359;28;20063;-67
2022/02/13 00:06:33;;;;;;;30.52;18.70;;;26.70;97.00;;;;;;4185487;28;20049;-67
2022/02/13 00:08:57;;;;;;;29.38;18.55;;;26.70;96.80;;;;;;4185148;28;20646;-67
2022/02/13 00:11:22;;;;;;;25.20;17.05;;;26.70;96.70;;;;;;4186466;28;20132;-67
2022/02/13 00:13:48;;;;;;;27.73;17.65;;;26.70;96.70;;;;;;4184803;28;20063;-67
2022/02/13 00:16:12;;;;;;;28.25;17.70;;;26.70;96.70;;;;;;4183982;28;20052;-67
2022/02/13 00:18:37;;;;;;;28.55;16.90;;;26.70;96.60;;;;;;4183996;28;20052;-67
2022/02/13 00:21:19;;;;;;;25.10;16.25;;;26.70;96.50;;;;;;4187622;28;20052;-67
2022/02/13 00:23:43;;;;;;;25.45;15.63;;;26.70;96.20;;;;;;4186960;28;20032;-67
2022/02/13 00:25:49;;;;;;;22.75;16.42;;;26.70;96.20;;;;;;4181565;28;20056;-67
2022/02/13 00:27:55;;;;;;;25.80;16.45;;;26.70;96.10;;;;;;4188306;28;20044;-67
2022/02/13 00:30:07;;;;;;;25.55;16.45;;;26.70;96.00;;;;;;4187688;28;20055;-65
2022/02/13 00:32:12;;;;;;;27.58;16.17;;;26.70;95.80;;;;;;4166970;28;20036;-66
2022/02/13 00:34:16;;;;;;;26.40;16.02;;;26.70;95.90;;;;;;4194373;28;20052;-66
2022/02/13 00:36:24;;;;;;;26.42;17.85;;;26.80;95.90;;;;;;4189006;28;20041;-64
2022/02/13 00:38:47;;;;;;;29.25;17.27;;;26.70;95.90;;;;;;4183357;28;20055;-67
2022/02/13 00:40:54;;;;;;;110.20;23.15;;;26.70;96.00;;;;;;4174530;28;20062;-68
2022/02/13 00:43:11;;;;;;;50.03;19.75;;;26.70;96.10;;;;;;4171673;28;20038;-67
2022/02/13 00:45:18;;;;;;;45.20;19.38;;;26.70;96.00;;;;;;4189190;28;20106;-67
2022/02/13 00:47:23;;;;;;;33.85;18.75;;;26.70;95.90;;;;;;4191573;28;20062;-68
2022/02/13 00:49:31;;;;;;;28.30;17.83;;;26.80;95.90;;;;;;3304296;28;10001604;-68
2022/02/13 00:51:37;;;;;;;27.20;17.00;;;26.80;95.90;;;;;;3292158;28;10001745;-69
2022/02/13 00:53:59;;;;;;;25.77;17.58;;;26.80;95.80;;;;;;4176457;28;20055;-68
2022/02/13 00:56:07;;;;;;;24.80;16.50;;;26.80;95.80;;;;;;4177596;28;20072;-68
2022/02/13 00:58:16;;;;;;;27.15;16.75;;;26.80;95.80;;;;;;4156413;28;20045;-68
2022/02/13 01:00:21;;;;;;;27.70;17.52;;;26.80;95.70;;;;;;4140640;28;20661;-66
2022/02/13 01:02:25;;;;;;;25.65;15.65;;;26.80;95.70;;;;;;4172450;28;20057;-66
2022/02/13 01:04:33;;;;;;;23.92;16.08;;;26.80;95.70;;;;;;4158622;28;20586;-66
2022/02/13 01:06:44;;;;;;;;;;;26.80;95.70;;;;;;4177684;28;20127;-66
2022/02/13 01:08:50;;;;;;;30.73;15.57;;;26.90;95.70;;;;;;4177408;28;19946;-67
2022/02/13 01:10:54;;;;;;;24.40;14.73;;;26.90;95.70;;;;;;4178135;28;20103;-66
2022/02/13 01:12:59;;;;;;;22.77;14.75;;;26.90;95.60;;;;;;4178248;28;20043;-66
2022/02/13 01:15:07;;;;;;;21.75;14.00;;;27.00;95.60;;;;;;4178163;28;20055;-66
2022/02/13 01:17:11;;;;;;;24.55;14.68;;;27.00;95.60;;;;;;4176732;28;20582;-66
2022/02/13 01:19:20;;;;;;;23.77;14.32;;;27.10;95.50;;;;;;4178102;28;20040;-66
2022/02/13 01:21:25;;;;;;;27.85;15.60;;;27.10;95.40;;;;;;4178136;28;20049;-66
2022/02/13 01:23:30;;;;;;;20.65;14.13;;;27.10;95.40;;;;;;4178771;28;20049;-65
2022/02/13 01:25:38;;;;;;;21.60;13.23;;;27.20;95.20;;;;;;4177415;28;20132;-66
2022/02/13 01:27:43;;;;;;;20.75;13.75;;;27.20;95.10;;;;;;4178867;28;20044;-68
2022/02/13 01:29:47;;;;;;;18.38;13.30;;;27.20;95.00;;;;;;4179171;28;20059;-66
2022/02/13 01:31:51;;;;;;;18.90;14.32;;;27.20;95.00;;;;;;4175874;28;20061;-66
2022/02/13 01:33:59;;;;;;;22.80;13.23;;;27.20;95.10;;;;;;4178171;28;20045;-66
2022/02/13 01:36:05;;;;;;;22.42;13.05;;;27.20;95.00;;;;;;4175855;28;20488;-64
2022/02/13 01:38:10;;;;;;;23.73;13.30;;;27.20;94.90;;;;;;4178216;28;20045;-67
2022/02/13 01:40:22;;;;;;;21.60;13.57;;;27.20;95.20;;;;;;4175562;28;20049;-66
2022/02/13 01:42:30;;;;;;;19.27;13.32;;;27.10;94.80;;;;;;4177984;28;20041;-66
2022/02/13 01:44:35;;;;;;;19.13;11.88;;;27.00;94.80;;;;;;4177376;28;20045;-66
2022/02/13 01:46:39;;;;;;;16.38;11.50;;;27.10;94.80;;;;;;4177557;28;21503;-66
2022/02/13 01:48:43;;;;;;;20.17;11.85;;;27.10;94.70;;;;;;4174078;28;20168;-66
2022/02/13 01:50:51;;;;;;;16.40;11.23;;;27.10;94.60;;;;;;4178481;28;20113;-65
2022/02/13 01:53:15;;;;;;;20.05;12.05;;;27.20;94.60;;;;;;4178369;28;20052;-66
2022/02/13 01:55:22;;;;;;;21.35;11.73;;;27.20;94.60;;;;;;4177187;28;20087;-66
2022/02/13 01:57:27;;;;;;;19.50;12.60;;;27.30;94.70;;;;;;4162056;28;20851;-66
2022/02/13 01:59:32;;;;;;;25.30;13.38;;;27.30;94.60;;;;;;4162809;28;20446;-66
2022/02/13 02:01:38;;;;;;;27.02;14.07;;;27.40;94.50;;;;;;4174260;28;20098;-66
2022/02/13 02:03:45;;;;;;;19.90;12.75;;;27.50;94.40;;;;;;4176058;28;20051;-65
2022/02/13 02:05:50;;;;;;;21.10;12.10;;;27.50;94.40;;;;;;4159743;28;20510;-65
2022/02/13 02:07:56;;;;;;;20.13;12.35;;;27.50;94.50;;;;;;4177543;28;20037;-66
2022/02/13 02:10:01;;;;;;;18.58;12.27;;;27.40;94.30;;;;;;4176048;28;20045;-64
2022/02/13 02:12:06;;;;;;;22.75;11.40;;;27.40;94.30;;;;;;4176411;28;20775;-64
2022/02/13 02:14:10;;;;;;;17.90;11.43;;;27.40;94.20;;;;;;4176553;28;20053;-65
2022/02/13 02:16:15;;;;;;;18.92;11.45;;;27.50;94.20;;;;;;4159538;28;20504;-64
2022/02/13 02:18:20;;;;;;;15.55;11.35;;;27.50;94.00;;;;;;4167176;28;20048;-65
2022/02/13 02:20:28;;;;;;;18.85;12.80;;;27.60;94.00;;;;;;4168874;28;20774;-64
2022/02/13 02:22:33;;;;;;;20.17;12.23;;;27.60;93.90;;;;;;4166869;28;20099;-65
2022/02/13 02:24:37;;;;;;;15.18;12.00;;;27.70;93.90;;;;;;4174961;28;20072;-64
2022/02/13 02:26:45;;;;;;;19.45;11.45;;;27.80;93.80;;;;;;4156045;28;20053;-65
2022/02/13 02:28:52;;;;;;;18.40;11.57;;;27.90;93.80;;;;;;4140753;28;20050;-64
2022/02/13 02:30:57;;;;;;;20.63;11.55;;;27.90;93.70;;;;;;4174776;28;20106;-64
2022/02/13 02:33:03;;;;;;;15.70;10.68;;;27.90;93.50;;;;;;4177488;28;20041;-64
2022/02/13 02:35:10;;;;;;;15.13;11.10;;;27.80;93.50;;;;;;4177282;28;20125;-64
2022/02/13 02:37:15;;;;;;;15.85;10.32;;;27.90;93.40;;;;;;4174458;28;20099;-64
2022/02/13 02:39:20;;;;;;;15.20;10.82;;;28.00;93.40;;;;;;4177951;28;20071;-64
2022/02/13 02:41:26;;;;;;;20.13;10.45;;;28.00;93.20;;;;;;4177735;28;20080;-64
2022/02/13 02:43:32;;;;;;;15.85;10.57;;;28.10;93.30;;;;;;4177341;28;20056;-65
2022/02/13 02:45:39;;;;;;;18.13;10.73;;;28.10;93.30;;;;;;4174926;28;20072;-64
2022/02/13 02:47:43;;;;;;;16.38;10.82;;;28.10;93.10;;;;;;4176845;28;20037;-64
2022/02/13 02:49:48;;;;;;;16.08;10.98;;;28.10;93.10;;;;;;4177289;28;20045;-64
2022/02/13 02:51:54;;;;;;;16.48;11.18;;;28.10;93.10;;;;;;4177376;28;20716;-64
2022/02/13 02:54:01;;;;;;;16.23;10.45;;;28.20;93.10;;;;;;4176521;28;20060;-65
2022/02/13 02:56:06;;;;;;;16.95;10.77;;;28.20;93.00;;;;;;4177061;28;20060;-65
2022/02/13 02:58:10;;;;;;;20.65;11.63;;;28.30;93.00;;;;;;4178380;28;20044;-65
2022/02/13 03:00:15;;;;;;;13.05;10.18;;;28.50;93.10;;;;;;4175513;28;20183;-64
2022/02/13 03:02:19;;;;;;;16.20;10.65;;;28.50;92.90;;;;;;4177199;28;20505;-65
2022/02/13 03:04:25;;;;;;;16.95;11.00;;;28.50;92.80;;;;;;4174656;28;20118;-64
2022/02/13 03:06:32;;;;;;;18.80;10.05;;;28.50;92.90;;;;;;4173972;28;20128;-66
2022/02/13 03:08:37;;;;;;;14.60;10.65;;;28.50;93.00;;;;;;4177829;28;20033;-65
2022/02/13 03:10:44;;;;;;;13.52;10.70;;;28.50;93.00;;;;;;4176022;28;20037;-65
2022/02/13 03:12:50;;;;;;;18.48;10.73;;;28.50;92.90;;;;;;4165059;28;20045;-66
2022/02/13 03:14:55;;;;;;;15.95;10.10;;;28.50;93.00;;;;;;4177598;28;20045;-65
2022/02/13 03:17:03;;;;;;;15.45;10.65;;;28.50;92.80;;;;;;4175285;28;20519;-66
2022/02/13 03:19:07;;;;;;;13.30;10.45;;;28.60;92.80;;;;;;4178718;28;20056;-66
2022/02/13 03:21:13;;;;;;;15.88;10.75;;;28.70;92.80;;;;;;4180912;28;20041;-65
2022/02/13 03:23:18;;;;;;;19.17;10.32;;;28.80;92.60;;;;;;4180566;28;20054;-65
2022/02/13 03:25:24;;;;;;;18.80;10.88;;;28.80;92.50;;;;;;4177815;28;20052;-65
2022/02/13 03:27:28;;;;;;;16.75;10.40;;;28.90;92.50;;;;;;4181291;28;20056;-66
2022/02/13 03:29:35;;;;;;;16.42;10.73;;;28.90;92.60;;;;;;4180775;28;20790;-65
2022/02/13 03:31:42;;;;;;;14.73;10.32;;;28.90;92.60;;;;;;4179822;28;20076;-65
2022/02/13 03:33:46;;;;;;;14.25;10.38;;;28.90;92.70;;;;;;4177017;28;20056;-66
2022/02/13 03:35:52;;;;;;;13.88;10.23;;;29.00;92.50;;;;;;4180344;28;20045;-66
2022/02/13 03:37:59;;;;;;;18.90;11.15;;;29.10;92.20;;;;;;4180204;28;20037;-65
2022/02/13 03:40:03;;;;;;;16.48;10.75;;;29.10;92.10;;;;;;4180599;28;20132;-65
2022/02/13 03:42:12;;;;;;;17.15;10.48;;;29.10;92.00;;;;;;4180953;28;20045;-66
2022/02/13 03:44:20;;;;;;;16.42;10.90;;;29.20;92.00;;;;;;4181069;28;20419;-66
2022/02/13 03:46:24;;;;;;;16.02;11.52;;;29.20;91.90;;;;;;4170795;28;20147;-66
2022/02/13 03:48:30;;;;;;;17.05;10.73;;;29.20;91.90;;;;;;4180876;28;20604;-65
2022/02/13 03:50:35;;;;;;;16.10;11.15;;;29.20;91.70;;;;;;4177735;28;20806;-65
2022/02/13 03:52:39;;;;;;;14.98;11.10;;;29.30;91.70;;;;;;4177817;28;20566;-65
2022/02/13 03:54:46;;;;;;;16.85;11.00;;;29.30;91.70;;;;;;4180230;28;20434;-65
2022/02/13 03:56:52;;;;;;;14.23;10.70;;;29.40;91.60;;;;;;4180352;28;20128;-65
2022/02/13 03:58:57;;;;;;;13.90;10.68;;;29.40;91.70;;;;;;4178739;28;20425;-65
2022/02/13 04:01:01;;;;;;;16.67;11.15;;;29.40;91.80;;;;;;4179942;28;20037;-65
2022/02/13 04:03:06;;;;;;;16.45;11.40;;;29.50;91.80;;;;;;4184849;28;20586;-65
2022/02/13 04:05:11;;;;;;;15.93;11.65;;;29.50;91.80;;;;;;4184869;28;20056;-66
2022/02/13 04:07:18;;;;;;;16.92;11.05;;;29.60;91.80;;;;;;4184855;28;20062;-67
2022/02/13 04:09:23;;;;;;;15.77;11.27;;;29.60;91.80;;;;;;4186356;28;20108;-66
2022/02/13 04:11:27;;;;;;;20.10;12.00;;;29.60;91.80;;;;;;4177429;28;20795;-66
2022/02/13 04:13:34;;;;;;;18.05;11.48;;;29.70;91.80;;;;;;4178362;28;20059;-66
2022/02/13 04:15:38;;;;;;;18.25;11.45;;;29.70;91.70;;;;;;4179191;28;20129;-66
2022/02/13 04:17:43;;;;;;;18.52;12.48;;;29.80;91.70;;;;;;4176796;28;20044;-67
2022/02/13 04:19:50;;;;;;;19.00;12.60;;;29.80;91.60;;;;;;4179224;28;20056;-66
2022/02/13 04:21:57;;;;;;;22.17;13.15;;;29.80;91.60;;;;;;4178681;28;20041;-66
2022/02/13 04:24:02;;;;;;;20.00;12.98;;;29.80;91.60;;;;;;4161369;28;20127;-66
2022/02/13 04:26:08;;;;;;;18.65;13.35;;;29.80;91.50;;;;;;4176225;28;20682;-66
2022/02/13 04:28:15;;;;;;;17.02;13.23;;;29.90;91.60;;;;;;4179647;28;20147;-65
2022/02/13 04:30:20;;;;;;;17.55;13.00;;;29.90;91.50;;;;;;4179004;28;20510;-64
2022/02/13 04:32:25;;;;;;;19.35;13.55;;;29.90;91.40;;;;;;4180499;28;20049;-66
2022/02/13 04:34:29;;;;;;;17.92;13.80;;;30.00;91.50;;;;;;4180036;28;20161;-68
2022/02/13 04:36:35;;;;;;;19.80;14.02;;;30.00;91.40;;;;;;4180164;28;20040;-67
2022/02/13 04:38:39;;;;;;;16.65;13.45;;;30.00;91.50;;;;;;4180148;28;20430;-69
2022/02/13 04:40:44;;;;;;;15.15;13.55;;;30.00;91.50;;;;;;4179802;28;20049;-71
2022/02/13 04:42:50;;;;;;;18.52;14.40;;;30.00;91.40;;;;;;4180301;28;20123;-69
2022/02/13 04:44:59;;;;;;;23.15;15.40;;;30.10;91.40;;;;;;4180097;28;20045;-68
2022/02/13 04:47:05;;;;;;;20.50;15.70;;;30.10;91.20;;;;;;4180131;28;20045;-68
2022/02/13 04:49:10;;;;;;;24.75;16.92;;;30.10;91.00;;;;;;4178942;28;20136;-68
2022/02/13 04:51:16;;;;;;;23.50;16.02;;;30.10;91.10;;;;;;4179513;28;20048;-68
2022/02/13 04:53:22;;;;;;;21.48;16.05;;;30.10;91.10;;;;;;4178205;28;20085;-68
2022/02/13 04:55:27;;;;;;;21.48;16.67;;;30.20;91.10;;;;;;4179196;28;20045;-68
2022/02/13 04:57:33;;;;;;;23.83;18.98;;;30.20;90.90;;;;;;4179675;28;20052;-68
2022/02/13 04:59:40;;;;;;;23.20;18.10;;;30.20;90.80;;;;;;4160652;28;20400;-69
2022/02/13 05:01:45;;;;;;;21.25;18.65;;;30.30;90.90;;;;;;4178379;28;20041;-67
2022/02/13 05:03:49;;;;;;;25.92;20.25;;;30.30;90.80;;;;;;4178764;28;20384;-68
2022/02/13 05:05:56;;;;;;;24.05;19.25;;;30.30;90.80;;;;;;4176403;28;20418;-68
2022/02/13 05:08:00;;;;;;;21.17;18.98;;;30.30;90.60;;;;;;4178584;28;20652;-68
2022/02/13 05:10:07;;;;;;;24.23;19.70;;;30.30;90.80;;;;;;4178768;28;20048;-70
2022/02/13 05:12:12;;;;;;;22.58;19.35;;;30.40;91.00;;;;;;4161025;28;20049;-69
2022/02/13 05:14:16;;;;;;;26.98;19.80;;;30.30;90.60;;;;;;4161161;28;20053;-67
2022/02/13 05:16:22;;;;;;;22.70;18.10;;;30.30;90.70;;;;;;4178227;28;20041;-69
2022/02/13 05:18:30;;;;;;;133.27;41.03;;;30.40;90.80;;;;;;4178292;28;20517;-67
2022/02/13 05:20:34;;;;;;;90.95;32.17;;;30.40;90.30;;;;;;4178306;28;20036;-67
2022/02/13 05:22:38;;;;;;;43.28;22.45;;;30.50;90.50;;;;;;4177690;28;20490;-67
2022/02/13 05:24:47;;;;;;;32.83;20.15;;;30.50;90.50;;;;;;4179211;28;20499;-64
2022/02/13 05:26:51;;;;;;;27.77;18.98;;;30.50;90.50;;;;;;4178654;28;20430;-67
2022/02/13 05:28:58;;;;;;;23.95;18.40;;;30.50;90.60;;;;;;4179453;28;20511;-71
2022/02/13 05:31:04;;;;;;;24.13;17.42;;;30.60;90.60;;;;;;4179094;28;20047;-71
2022/02/13 05:33:09;;;;;;;23.17;17.08;;;30.60;90.70;;;;;;4179243;28;20061;-71
2022/02/13 05:35:16;;;;;;;20.75;17.55;;;30.60;90.80;;;;;;4160702;28;20467;-70
2022/02/13 05:37:22;;;;;;;21.90;17.20;;;30.70;90.80;;;;;;4173099;28;20087;-69
2022/02/13 05:39:27;;;;;;;22.95;17.73;;;30.80;90.80;;;;;;4179198;28;20049;-71
2022/02/13 05:41:31;;;;;;;21.38;17.40;;;30.80;90.90;;;;;;4161717;28;20069;-70
2022/02/13 05:43:38;;;;;;;21.80;17.38;;;30.90;90.80;;;;;;4179455;28;20127;-68
2022/02/13 05:45:44;;;;;;;21.90;17.60;;;30.90;90.30;;;;;;4178773;28;20124;-67
2022/02/13 05:47:50;;;;;;;20.77;17.23;;;30.70;90.30;;;;;;4179285;28;20191;-69
2022/02/13 05:49:57;;;;;;;22.25;17.52;;;30.70;90.40;;;;;;4178390;28;20048;-69
2022/02/13 05:52:01;;;;;;;21.30;17.63;;;30.70;90.30;;;;;;4179062;28;20048;-68
2022/02/13 05:54:09;;;;;;;27.40;16.90;;;30.70;90.40;;;;;;4178734;28;20048;-72
2022/02/13 05:56:13;;;;;;;25.02;18.05;;;30.80;90.10;;;;;;4176622;28;20131;-70
2022/02/13 05:58:21;;;;;;;19.33;16.48;;;30.80;90.50;;;;;;4171582;28;20132;-69
2022/02/13 06:00:26;;;;;;;20.05;16.13;;;30.60;90.00;;;;;;4160984;28;20546;-72
2022/02/13 06:02:30;;;;;;;25.00;17.17;;;30.60;90.00;;;;;;4179240;28;20037;-75
2022/02/13 06:04:35;;;;;;;22.88;15.70;;;30.60;90.50;;;;;;4178414;28;20132;-76
2022/02/13 06:06:41;;;;;;;19.63;16.27;;;30.80;90.50;;;;;;4177824;28;20052;-71
2022/02/13 06:08:46;;;;;;;21.70;16.35;;;30.80;90.40;;;;;;4159895;28;20049;-71
2022/02/13 06:10:51;;;;;;;20.00;16.58;;;30.90;90.20;;;;;;4176947;28;20043;-70
2022/02/13 06:12:57;;;;;;;21.27;15.40;;;30.90;90.10;;;;;;4177883;28;20041;-69
2022/02/13 06:15:05;;;;;;;20.88;15.82;;;31.00;89.70;;;;;;4178291;28;20106;-67
2022/02/13 06:17:09;;;;;;;22.85;15.65;;;31.00;90.20;;;;;;4174896;28;20624;-68
2022/02/13 06:19:14;;;;;;;22.00;15.90;;;31.00;90.50;;;;;;4177796;28;20048;-67
2022/02/13 06:21:21;;;;;;;19.58;15.70;;;31.10;90.40;;;;;;4178764;28;20043;-67
2022/02/13 06:23:25;;;;;;;18.00;15.60;;;31.10;90.20;;;;;;4178843;28;20049;-68
2022/02/13 06:25:32;;;;;;;18.98;15.63;;;31.10;90.10;;;;;;4178202;28;20519;-67
2022/02/13 06:27:40;;;;;;;23.20;17.02;;;31.10;90.10;;;;;;4176655;28;20453;-68
2022/02/13 06:29:46;;;;;;;21.35;16.30;;;31.10;90.00;;;;;;4177144;28;20515;-64
2022/02/13 06:31:52;;;;;;;20.00;15.68;;;31.00;90.10;;;;;;4178952;28;20052;-67
2022/02/13 06:33:59;;;;;;;19.55;15.57;;;31.10;90.10;;;;;;4171089;28;20107;-68
2022/02/13 06:36:04;;;;;;;21.23;16.25;;;31.20;90.30;;;;;;4177168;28;20035;-68
2022/02/13 06:38:13;;;;;;;19.10;15.57;;;31.20;90.20;;;;;;4177788;28;20045;-69
2022/02/13 06:40:19;;;;;;;19.10;15.38;;;31.20;89.20;;;;;;4177424;28;20048;-66
2022/02/13 06:42:23;;;;;;;23.23;17.02;;;31.20;89.30;;;;;;4175183;28;20106;-67
2022/02/13 06:44:30;;;;;;;19.90;15.50;;;31.30;89.20;;;;;;4177699;28;20361;-70
2022/02/13 06:46:37;;;;;;;22.13;15.68;;;31.30;89.60;;;;;;4159601;28;20136;-69
2022/02/13 06:48:42;;;;;;;22.60;16.15;;;31.30;90.00;;;;;;4177334;28;20068;-68
2022/02/13 06:50:48;;;;;;;19.90;15.43;;;31.40;89.40;;;;;;4175989;28;20041;-67
2022/02/13 06:52:54;;;;;;;18.25;15.02;;;31.40;89.30;;;;;;4178496;28;20103;-66
2022/02/13 06:54:59;;;;;;;18.30;15.57;;;31.40;88.70;;;;;;4178169;28;20041;-67
2022/02/13 06:57:05;;;;;;;20.98;15.70;;;31.40;87.80;;;;;;4183194;28;20093;-67
2022/02/13 06:59:11;;;;;;;17.65;15.05;;;31.40;87.90;;;;;;4166789;28;20586;-68
2022/02/13 07:01:15;;;;;;;19.48;15.48;;;31.30;88.00;;;;;;4183851;28;20041;-68
2022/02/13 07:03:22;;;;;;;18.73;16.17;;;31.30;88.10;;;;;;4179282;28;20560;-69
2022/02/13 07:05:28;;;;;;;17.40;15.25;;;31.20;87.70;;;;;;4159383;28;20073;-68
2022/02/13 07:07:32;;;;;;;18.30;14.27;;;31.20;88.10;;;;;;4173583;28;20681;-68
2022/02/13 07:09:39;;;;;;;22.60;15.35;;;31.20;88.00;;;;;;4179601;28;20502;-67
2022/02/13 07:11:48;;;;;;;19.38;15.43;;;31.20;87.80;;;;;;4179604;28;20618;-69
2022/02/13 07:13:52;;;;;;;19.77;15.10;;;31.30;87.90;;;;;;4180223;28;20076;-66
2022/02/13 07:15:58;;;;;;;20.05;15.60;;;31.30;88.10;;;;;;4180419;28;20044;-68
2022/02/13 07:18:06;;;;;;;19.65;14.63;;;31.40;88.30;;;;;;4181758;28;20454;-66
2022/02/13 07:20:10;;;;;;;20.90;14.95;;;31.30;88.50;;;;;;4181189;28;20052;-68
2022/02/13 07:22:17;;;;;;;18.20;14.80;;;31.30;89.00;;;;;;4181561;28;20045;-67
2022/02/13 07:24:24;;;;;;;20.17;15.02;;;31.40;88.90;;;;;;4163623;28;20037;-67
2022/02/13 07:26:28;;;;;;;20.90;14.98;;;31.50;88.20;;;;;;4180893;28;20135;-67
2022/02/13 07:30:49;;;;;;;18.77;14.75;;;31.50;87.70;;;;;;4174800;28;20458;-67
2022/02/13 07:32:53;;;;;;;19.92;15.15;;;31.60;87.80;;;;;;4171847;28;20041;-65
2022/02/13 07:34:58;;;;;;;18.08;15.13;;;31.60;87.70;;;;;;4162353;28;20045;-67
2022/02/13 07:37:03;;;;;;;19.20;14.80;;;31.60;87.50;;;;;;4173515;28;20041;-66
2022/02/13 07:39:07;;;;;;;19.88;15.60;;;31.60;87.40;;;;;;4181401;28;20041;-66
2022/02/13 07:41:12;;;;;;;18.58;13.85;;;31.60;87.40;;;;;;4163390;28;20041;-66
2022/02/13 07:43:17;;;;;;;19.38;13.73;;;31.70;87.70;;;;;;4180771;28;20525;-66
2022/02/13 07:45:22;;;;;;;19.85;13.95;;;31.70;87.90;;;;;;4163505;28;20041;-68
2022/02/13 07:47:33;;;;;;;19.00;14.25;;;31.70;86.50;;;;;;4180969;28;20131;-67
2022/02/13 07:49:37;;;;;;;20.67;14.80;;;31.60;85.90;;;;;;4180936;28;20052;-69
2022/02/13 07:51:42;;;;;;;18.77;14.25;;;31.50;86.30;;;;;;4180989;28;20040;-68
2022/02/13 07:53:49;;;;;;;17.42;14.80;;;31.50;86.20;;;;;;4181186;28;20060;-68
2022/02/13 07:55:53;;;;;;;17.92;14.13;;;31.50;86.50;;;;;;4180753;28;20576;-68
2022/02/13 07:57:58;;;;;;;18.95;14.18;;;31.50;87.00;;;;;;4180102;28;20041;-69
2022/02/13 08:00:05;;;;;;;16.40;13.95;;;31.40;87.60;;;;;;4180629;28;20048;-68
2022/02/13 08:02:16;;;;;;;18.63;14.52;;;31.60;87.80;;;;;;4173674;28;20345;-66
2022/02/13 08:04:20;;;;;;;19.15;14.00;;;31.60;87.80;;;;;;4178823;28;20053;-67
2022/02/13 08:06:28;;;;;;;18.00;14.57;;;31.70;87.60;;;;;;4177082;28;20103;-68
2022/02/13 08:08:38;;;;;;;17.70;14.18;;;31.70;87.40;;;;;;4179171;28;20463;-67
2022/02/13 08:10:42;;;;;;;21.88;14.23;;;31.70;87.40;;;;;;4177741;28;20041;-68
2022/02/13 08:12:47;;;;;;;20.65;14.82;;;31.70;87.40;;;;;;4179670;28;20055;-68
2022/02/13 08:14:54;;;;;;;16.75;14.52;;;31.70;87.30;;;;;;4179362;28;20052;-67
2022/02/13 08:16:59;;;;;;;17.50;14.25;;;31.70;87.70;;;;;;4176761;28;20094;-68
2022/02/13 08:19:06;;;;;;;18.65;14.45;;;31.70;87.80;;;;;;4162183;28;20096;-67
2022/02/13 08:21:13;;;;;;;19.13;14.82;;;31.80;87.30;;;;;;4161490;28;20069;-68
2022/02/13 08:23:17;;;;;;;17.02;14.52;;;31.70;87.90;;;;;;4178543;28;20445;-67
2022/02/13 08:25:24;;;;;;;20.67;15.73;;;31.70;87.20;;;;;;4184712;28;20055;-68
2022/02/13 08:27:29;;;;;;;19.42;15.15;;;31.70;87.10;;;;;;4177205;28;20596;-69
2022/02/13 08:29:34;;;;;;;19.17;15.55;;;31.70;87.00;;;;;;4176338;28;20084;-67
2022/02/13 08:31:39;;;;;;;20.02;15.20;;;31.70;87.30;;;;;;4179491;28;20140;-68
2022/02/13 08:33:47;;;;;;;20.08;14.68;;;31.70;87.40;;;;;;4162077;28;20045;-67
2022/02/13 08:35:53;;;;;;;18.75;14.73;;;31.70;87.60;;;;;;4175120;28;20049;-68
2022/02/13 08:38:01;;;;;;;22.52;13.73;;;31.70;87.00;;;;;;4179554;28;20450;-69
2022/02/13 08:40:08;;;;;;;19.65;14.70;;;31.70;87.10;;;;;;4161552;28;20029;-68
2022/02/13 08:42:13;;;;;;;20.45;14.65;;;31.70;86.80;;;;;;4178035;28;20148;-69
2022/02/13 08:44:17;;;;;;;17.92;14.63;;;31.70;86.40;;;;;;4175280;28;20036;-69
2022/02/13 08:46:23;;;;;;;17.05;14.10;;;31.70;86.50;;;;;;4178001;28;20049;-69
2022/02/13 08:48:29;;;;;;;16.67;13.38;;;31.70;86.50;;;;;;4178946;28;20585;-69
2022/02/13 08:50:34;;;;;;;16.33;13.75;;;31.70;86.80;;;;;;4178729;28;20060;-69
2022/02/13 08:52:40;;;;;;;17.30;14.30;;;31.70;87.00;;;;;;4176721;28;20042;-70
2022/02/13 08:54:45;;;;;;;16.67;13.13;;;31.70;87.20;;;;;;4178084;28;20076;-69
2022/02/13 08:56:53;;;;;;;20.42;13.98;;;31.80;87.20;;;;;;4178517;28;20033;-69
2022/02/13 08:59:00;;;;;;;18.45;13.95;;;31.70;87.00;;;;;;4178932;28;20056;-68
2022/02/13 09:01:04;;;;;;;14.82;13.23;;;31.70;87.00;;;;;;4171671;28;20040;-69
2022/02/13 09:03:11;;;;;;;16.50;13.75;;;31.80;87.30;;;;;;4171113;28;20542;-68
2022/02/13 09:05:18;;;;;;;16.02;13.23;;;31.80;86.80;;;;;;4160854;28;20045;-68
2022/02/13 09:07:22;;;;;;;18.38;13.77;;;31.70;86.70;;;;;;4171915;28;20086;-68
2022/02/13 09:09:30;;;;;;;18.27;14.02;;;31.70;86.50;;;;;;4173316;28;20049;-67
2022/02/13 09:11:37;;;;;;;20.33;14.02;;;31.70;86.40;;;;;;4170897;28;20608;-68
2022/02/13 09:13:42;;;;;;;18.58;13.65;;;31.70;86.40;;;;;;4170198;28;20399;-68
2022/02/13 09:15:46;;;;;;;19.00;13.68;;;31.60;86.30;;;;;;4170999;28;20049;-68
2022/02/13 09:17:53;;;;;;;18.90;13.63;;;31.60;86.90;;;;;;4165610;28;20033;-68
2022/02/13 09:19:58;;;;;;;18.27;13.00;;;31.70;87.40;;;;;;4176310;28;20095;-68
2022/02/13 09:22:05;;;;;;;18.90;13.60;;;31.60;87.50;;;;;;4174765;28;20053;-64
2022/02/13 09:24:11;;;;;;;19.77;13.13;;;31.60;87.50;;;;;;4175226;28;20083;-68
2022/02/13 09:26:16;;;;;;;14.30;12.13;;;31.60;88.10;;;;;;4175853;28;20072;-67
2022/02/13 09:28:23;;;;;;;17.85;12.95;;;31.60;87.70;;;;;;4176011;28;20051;-67
2022/02/13 09:30:29;;;;;;;17.60;13.18;;;31.60;87.50;;;;;;4179069;28;20057;-67
2022/02/13 09:32:34;;;;;;;15.70;12.35;;;31.60;87.50;;;;;;4179520;28;20040;-68
2022/02/13 09:34:41;;;;;;;17.58;12.55;;;31.60;87.20;;;;;;4179193;28;20052;-68
2022/02/13 09:36:47;;;;;;;16.15;12.40;;;31.60;87.00;;;;;;4178513;28;20036;-66
2022/02/13 09:38:54;;;;;;;15.25;12.63;;;31.60;87.10;;;;;;4179286;28;20504;-67
2022/02/13 09:41:01;;;;;;;17.77;12.18;;;31.50;87.10;;;;;;4179131;28;20029;-68
2022/02/13 09:43:08;;;;;;;17.27;12.00;;;31.50;87.00;;;;;;4177149;28;20853;-68
2022/02/13 09:45:12;;;;;;;19.92;13.02;;;31.60;86.90;;;;;;4175472;28;20056;-68
2022/02/13 09:47:20;;;;;;;17.98;12.50;;;31.60;86.80;;;;;;4177632;28;20048;-68
2022/02/13 09:49:26;;;;;;;18.73;12.98;;;31.50;87.00;;;;;;4175904;28;20479;-68
2022/02/13 09:51:31;;;;;;;15.10;12.85;;;31.50;87.10;;;;;;4177004;28;20114;-69
2022/02/13 09:53:37;;;;;;;16.42;12.98;;;31.50;87.30;;;;;;4174678;28;20044;-68
2022/02/13 09:55:44;;;;;;;17.88;13.27;;;31.40;87.50;;;;;;4177812;28;20076;-67
2022/02/13 10:00:07;;;;;;;19.67;14.57;;;31.40;87.30;;;;;;4156287;28;20442;-68
2022/02/13 10:02:30;;;;;;;17.52;14.98;;;31.30;87.50;;;;;;4176889;28;20044;-66
2022/02/13 10:04:42;;;;;;;17.15;14.20;;;31.30;87.50;;;;;;4174768;28;20530;-68
2022/02/13 10:06:49;;;;;;;19.88;14.40;;;31.30;87.90;;;;;;4174863;28;20045;-68
2022/02/13 10:08:57;;;;;;;19.13;14.90;;;31.20;87.80;;;;;;4172460;28;20045;-67
2022/02/13 10:11:13;;;;;;;17.65;13.98;;;31.20;88.00;;;;;;4172806;28;20171;-68
2022/02/13 10:13:27;;;;;;;;;;;31.20;87.80;;;;;;4173632;28;20071;-67
2022/02/13 10:15:34;;;;;;;22.92;16.15;;;31.10;88.00;;;;;;4171324;28;20301;-68
2022/02/13 10:18:03;;;;;;;20.02;15.88;;;31.10;88.20;;;;;;4171579;28;20471;-67
2022/02/13 10:20:10;;;;;;;24.17;17.58;;;31.10;88.50;;;;;;4167693;28;20057;-68
2022/02/13 10:22:16;;;;;;;19.65;16.33;;;31.10;89.00;;;;;;4172084;28;20132;-68
2022/02/13 10:24:32;;;;;;;21.13;15.70;;;31.10;89.00;;;;;;4174895;28;20140;-68
2022/02/13 10:26:38;;;;;;;22.52;16.20;;;31.10;89.60;;;;;;4174000;28;20037;-68
2022/02/13 10:28:55;;;;;;;20.52;16.98;;;31.00;89.50;;;;;;4187096;28;20047;-69
2022/02/13 10:31:03;;;;;;;21.02;16.17;;;31.00;89.80;;;;;;4173824;28;20508;-69
2022/02/13 10:33:21;;;;;;;21.52;17.10;;;31.00;90.00;;;;;;4159865;28;20124;-68
2022/02/13 10:35:29;;;;;;;21.50;16.20;;;31.00;89.20;;;;;;4173506;28;20131;-68
2022/02/13 10:37:39;;;;;;;20.88;15.15;;;30.90;89.30;;;;;;4173620;28;20049;-69
2022/02/13 10:39:48;;;;;;;19.15;16.20;;;30.90;89.60;;;;;;4173208;28;20033;-68
2022/02/13 10:41:55;;;;;;;19.73;15.85;;;30.90;89.90;;;;;;4171537;28;20053;-68
2022/02/13 10:44:05;;;;;;;22.90;15.75;;;30.90;90.20;;;;;;4174257;28;20136;-68
2022/02/13 10:46:17;;;;;;;22.50;15.68;;;30.80;90.00;;;;;;4157728;28;20548;-68
2022/02/13 10:48:22;;;;;;;20.70;15.65;;;30.90;90.00;;;;;;4174603;28;20131;-68
2022/02/13 10:50:30;;;;;;;22.20;16.17;;;30.80;90.20;;;;;;4158899;28;20598;-68